Nearby METAR Reports

KLNK - Lincoln, Nebraska, USA
Distance from station: WNW 8mi, 13km
Updated: Fri, 19-Apr-2019 4:54pm CDT
Clear
Clear
 Wind from calm
Wind: Calm
Temperature: 66°F , 19°C
Dew Point: 28°F , -2°C
Humidity: 24%
Barometer: 30.00 inHg , 1015.9 hPa
Clouds: Clear
Visibility: 10 miles , 16 km
2019/04/19 21:54 KLNK 192154Z 00000KT 10SM CLR 19/M02 A3000 RMK AO2 SLP159 T01941022
KAHQ - Wahoo, Nebraska, USA
Distance from station: N 31mi, 49km
Updated: Fri, 19-Apr-2019 5:15pm CDT
Clear
Clear
 Wind from WNW
Wind: WNW 6 mph , 9 km/h
Temperature: 66°F , 19°C
Dew Point: 27°F , -3°C
Humidity: 22%
Barometer: 29.99 inHg , 1015.6 hPa
Clouds: Clear
Visibility: 10 miles , 16 km
2019/04/19 22:15 KAHQ 192215Z AUTO 30005KT 10SM CLR 19/M03 A2999 RMK AO2 T01851028
 
KBIE - Beatrice Municip, Nebraska, USA
Distance from station: S 36mi, 57km
Updated: Fri, 19-Apr-2019 5:15pm CDT
Clear
Clear
 Wind from NW
Wind: NW 3 mph , 6 km/h
Temperature: 64°F , 18°C
Dew Point: 30°F , -1°C
Humidity: 28%
Barometer: 30.00 inHg , 1015.9 hPa
Clouds: Clear
Visibility: 10 miles , 16 km
2019/04/19 22:15 KBIE 192215Z AUTO 32003KT 10SM CLR 18/M01 A3000 RMK AO2 T01841015
KMLE - Omaha/Millard, Nebraska, USA
Distance from station: NE 39mi, 63km
Updated: Fri, 19-Apr-2019 5:15pm CDT
Clear
Clear
 Wind from NNW
Wind: NNW 5 mph , 7 km/h
Temperature: 66°F , 19°C
Dew Point: 30°F , -1°C
Humidity: 26%
Barometer: 29.98 inHg , 1015.2 hPa
Clouds: Clear
Visibility: 10 miles , 16 km
2019/04/19 22:15 KMLE 192215Z AUTO 34004KT 10SM CLR 19/M01 A2998 RMK AO2 T01891010
 
KPMV - Plattsmouth Muni, Nebraska, USA
Distance from station: ENE 39mi, 63km
Updated: Fri, 19-Apr-2019 5:15pm CDT
Clear
Clear
 Wind from calm
Wind: Calm
Temperature: 63°F , 17°C
Dew Point: 30°F , -1°C
Humidity: 30%
Barometer: 30.00 inHg , 1015.9 hPa
Clouds: Clear
Visibility: 10 miles , 16 km
2019/04/19 22:15 KPMV 192215Z AUTO 00000KT 10SM CLR 17/M01 A3000 RMK AO2 T01681014
KAFK - Nebraska City, Nebraska, USA
Distance from station: ESE 43mi, 69km
Updated: Fri, 19-Apr-2019 5:15pm CDT
Clear
Clear
 Wind from NE
Wind: NE 13 mph , 20 km/h
Temperature: 63°F , 17°C
Dew Point: 25°F , -4°C
Humidity: 24%
Barometer: 30.00 inHg , 1015.9 hPa
Clouds: Clear
Visibility: 10 miles , 16 km
2019/04/19 22:15 KAFK 192215Z AUTO 04011KT 10SM CLR 17/M04 A3000 RMK AO2 T01691041
 
KOFF - Offutt Afb/Belle, Nebraska, USA
Distance from station: ENE 44mi, 70km
Updated: Fri, 19-Apr-2019 4:56pm CDT
Clear
Clear
 Wind from calm
Wind: Calm
Temperature: 66°F , 19°C
Dew Point: 27°F , -3°C
Humidity: 22%
Barometer: 30.00 inHg , 1015.9 hPa
Clouds: Clear
Visibility: 10 miles , 16 km
2019/04/19 21:56 KOFF 192156Z 00000KT 10SM CLR 19/M03 A3000 RMK AO2A SLP157 ALSTG/SLP ESTMD T01851034 RVRNO TSNO CHINO RWY30 $
KFET - Fremont Muni Arp, Nebraska, USA
Distance from station: N 46mi, 74km
Updated: Fri, 19-Apr-2019 5:15pm CDT
Clear
Clear
 Wind from calm
Wind: Calm
Temperature: 66°F , 19°C
Dew Point: 27°F , -3°C
Humidity: 22%
Barometer: 29.99 inHg , 1015.6 hPa
Clouds: Clear
Visibility: 10 miles , 16 km
2019/04/19 22:15 KFET 192215Z AUTO 00000KT 10SM CLR 19/M03 A2999 RMK AO2 T01891029
 
KBTA - Blair Muni, Nebraska, USA
Distance from station: NNE 51mi, 82km
Updated: Fri, 19-Apr-2019 5:15pm CDT
Clear
Clear
 Wind from calm
Wind: Calm
Temperature: 64°F , 18°C
Dew Point: 28°F , -2°C
Humidity: 26%
Barometer: 29.98 inHg , 1015.2 hPa
Clouds: Clear
Visibility: 10 miles , 16 km
2019/04/19 22:15 KBTA 192215Z AUTO 00000KT 10SM CLR 18/M02 A2998 RMK AO2 T01791021
KJYR - York, Nebraska, USA
Distance from station: W 52mi, 84km
Updated: Fri, 19-Apr-2019 5:15pm CDT
Clear
Clear
 Wind from calm
Wind: Calm
Temperature: 64°F , 18°C
Dew Point: 28°F , -2°C
Humidity: 26%
Barometer: 30.00 inHg , 1015.9 hPa
Clouds: Clear
Visibility: 10 miles , 16 km
2019/04/19 22:15 KJYR 192215Z AUTO 00000KT 10SM CLR 18/M02 A3000 RMK AO2
 
KOMA - Omaha/Eppley, Nebraska, USA
Distance from station: NE 53mi, 85km
Updated: Fri, 19-Apr-2019 4:52pm CDT
Few Clouds
Few Clouds
 Wind from NNE
Wind: NNE 12 mph , 19 km/h
Temperature: 66°F , 19°C
Dew Point: 28°F , -2°C
Humidity: 24%
Barometer: 29.99 inHg , 1015.6 hPa
Clouds: Few Clouds
Visibility: 10 miles , 16 km
Cloud details: Few Clouds 25000 ft
2019/04/19 21:52 KOMA 192152Z 02010KT 10SM FEW250 19/M02 A2999 RMK AO2 SLP156 T01891022
KOLU - Columbus Muni, Nebraska, USA
Distance from station: NW 58mi, 93km
Updated: Fri, 19-Apr-2019 4:56pm CDT
Clear
Clear
 Wind from calm
Wind: Calm
Temperature: 64°F , 18°C
Dew Point: 32°F , 0°C
Humidity: 30%
Barometer: 30.00 inHg , 1015.9 hPa
Clouds: Clear
Visibility: 10 miles , 16 km
2019/04/19 21:56 KOLU 192156Z AUTO 00000KT 10SM CLR 18/00 A3000 RMK AO2 SLP163 T01780000